Time;durP1;ratioP1;P1;durP2;ratioP2;P2;SDS_P1;SDS_P2;PMS_P1;PMS_P2;Temp;Humidity;BMP_temperature;BMP_pressure;BME280_temperature;BME280_humidity;BME280_pressure;Samples;Min_cycle;Max_cycle;Signal;HPM_P1;HPM_P2
2021/12/10 00:00:54;;;;;;;6.03;3.30;;;;;;;1.02;70.53;97913.13;4967551;28;20234;-70
2021/12/10 00:03:34;;;;;;;6.67;3.53;;;;;;;0.31;72.85;97922.78;4981369;28;20231;-70
2021/12/10 00:06:06;;;;;;;5.03;3.33;;;;;;;0.31;72.70;97919.34;5006066;28;20220;-69
2021/12/10 00:08:37;;;;;;;8.40;3.70;;;;;;;1.22;69.71;97903.22;5006208;28;20232;-69
2021/12/10 00:11:12;;;;;;;16.83;3.43;;;;;;;1.50;68.06;97877.59;4998595;28;20238;-69
2021/12/10 00:13:44;;;;;;;7.57;4.17;;;;;;;0.94;69.30;97863.19;5010309;28;20229;-72
2021/12/10 00:16:14;;;;;;;9.03;3.40;;;;;;;1.27;68.32;97860.72;5010635;28;20227;-70
2021/12/10 00:18:48;;;;;;;8.43;3.70;;;;;;;0.60;69.75;97869.22;5009764;28;20224;-70
2021/12/10 00:21:15;;;;;;;8.47;3.53;;;;;;;-0.46;73.42;97885.66;5009504;28;20585;-70
2021/12/10 00:23:46;;;;;;;9.83;3.83;;;;;;;1.30;69.30;97863.03;5010425;28;20225;-70
2021/12/10 00:26:13;;;;;;;6.70;3.67;;;;;;;0.87;69.12;97849.03;5008657;28;20229;-70
2021/12/10 00:28:40;;;;;;;6.23;3.47;;;;;;;0.81;69.81;97851.31;5006692;28;20221;-70
2021/12/10 00:31:31;;;;;;;7.70;3.43;;;;;;;1.88;66.88;97849.06;5009225;28;20270;-70
2021/12/10 00:34:09;;;;;;;5.70;3.23;;;;;;;0.18;68.39;97809.59;5006057;28;20229;-70
2021/12/10 00:36:37;;;;;;;5.27;3.83;;;;;;;0.94;69.34;97829.06;5008740;28;20229;-69
2021/12/10 00:39:07;;;;;;;8.20;3.70;;;;;;;0.06;69.92;97820.31;5006278;28;20224;-69
2021/12/10 00:41:35;;;;;;;7.00;3.43;;;;;;;-0.91;72.90;97821.03;5008317;28;20243;-70
2021/12/10 00:44:02;;;;;;;5.00;3.37;;;;;;;-0.30;73.61;97833.44;5009242;28;20221;-69
2021/12/10 00:46:29;;;;;;;8.53;3.90;;;;;;;-0.06;73.22;97826.78;5008790;28;20258;-69
2021/12/10 00:48:56;;;;;;;8.07;3.87;;;;;;;-1.01;75.72;97818.44;5002519;28;20224;-70
2021/12/10 00:51:24;;;;;;;12.00;3.57;;;;;;;-0.70;73.67;97818.94;5009000;28;20221;-69
2021/12/10 00:53:52;;;;;;;7.20;3.67;;;;;;;-0.02;73.50;97812.41;5006806;28;20222;-70
2021/12/10 00:56:19;;;;;;;8.17;3.20;;;;;;;0.35;70.18;97776.44;5005552;28;20221;-71
2021/12/10 00:58:46;;;;;;;4.83;3.00;;;;;;;-0.85;75.24;97799.47;5008864;28;20227;-69
2021/12/10 01:01:17;;;;;;;4.93;3.20;;;;;;;-1.08;72.94;97765.84;5008384;28;20232;-70
2021/12/10 01:03:50;;;;;;;7.93;3.30;;;;;;;-1.29;74.16;97763.44;5009640;28;20585;-70
2021/12/10 01:06:20;;;;;;;6.00;2.80;;;;;;;-1.25;75.08;97766.59;5009283;28;20241;-69
2021/12/10 01:08:50;;;;;;;6.07;2.80;;;;;;;-1.73;75.48;97751.94;5008486;28;20298;-70
2021/12/10 01:11:24;;;;;;;5.27;3.20;;;;;;;-1.13;73.89;97747.13;4991146;28;20236;-70
2021/12/10 01:13:57;;;;;;;8.03;3.07;;;;;;;-1.57;75.25;97752.16;4999073;28;20231;-70
2021/12/10 01:25:07;;;;;;;8.20;3.17;;;;;;;-1.21;72.96;97733.97;4965995;28;20225;-70
2021/12/10 01:27:39;;;;;;;6.00;3.20;;;;;;;-0.64;72.16;97722.44;4995446;28;20913;-70
2021/12/10 01:30:17;;;;;;;8.40;3.30;;;;;;;-0.27;72.59;97732.78;5008280;28;20243;-70
2021/12/10 01:32:59;;;;;;;6.63;3.13;;;;;;;0.82;68.97;97705.13;5008216;28;20259;-70
2021/12/10 01:35:30;;;;;;;6.77;3.10;;;;;;;1.04;66.83;97680.09;4977975;28;20804;-70
2021/12/10 01:38:00;;;;;;;7.87;3.30;;;;;;;1.32;65.90;97666.69;4988789;28;20720;-70
2021/12/10 01:40:27;;;;;;;5.43;3.07;;;;;;;1.49;66.16;97670.97;4996871;28;20224;-69
2021/12/10 01:43:05;;;;;;;11.13;3.30;;;;;;;1.87;64.07;97649.41;5001231;28;20233;-68
2021/12/10 01:45:35;;;;;;;6.20;3.00;;;;;;;1.16;66.18;97652.56;5003058;28;20223;-70
2021/12/10 01:48:09;;;;;;;6.23;3.67;;;;;;;1.71;65.74;97658.16;4997893;28;20236;-69
2021/12/10 01:50:36;;;;;;;7.87;3.60;;;;;;;1.47;64.99;97643.22;5007380;28;20231;-70
2021/12/10 01:55:31;;;;;;;7.40;3.80;;;;;;;1.79;64.63;97652.88;5651190;22;20266;-69
2021/12/10 01:57:59;;;;;;;11.17;3.80;;;;;;;1.22;65.60;97640.56;5007322;28;20235;-69
2021/12/10 02:00:33;;;;;;;6.60;3.70;;;;;;;1.26;65.35;97635.81;5008148;28;20224;-69
2021/12/10 02:03:00;;;;;;;8.20;3.97;;;;;;;1.88;64.57;97643.97;5009402;28;20228;-69
2021/12/10 02:05:27;;;;;;;7.57;3.50;;;;;;;1.40;65.92;97635.16;5008013;28;20235;-69
2021/12/10 02:07:55;;;;;;;6.10;3.47;;;;;;;1.80;64.87;97637.91;5008671;28;20234;-70
2021/12/10 02:10:26;;;;;;;7.03;3.77;;;;;;;1.56;64.64;97626.47;4999616;28;20232;-68
2021/12/10 02:12:54;;;;;;;9.70;3.80;;;;;;;1.54;64.06;97610.84;5009268;28;20227;-69
2021/12/10 02:15:25;;;;;;;7.37;3.43;;;;;;;1.17;65.67;97612.16;5008335;28;20242;-70
2021/12/10 02:17:53;;;;;;;6.77;3.30;;;;;;;1.38;65.91;97614.31;4996749;28;20220;-69
2021/12/10 02:20:26;;;;;;;11.20;3.40;;;;;;;0.97;65.80;97605.59;5016240;22;20247;-66
2021/12/10 02:22:53;;;;;;;8.43;3.80;;;;;;;1.82;64.59;97618.38;4987653;28;20902;-66
2021/12/10 02:25:26;;;;;;;11.57;3.43;;;;;;;1.62;64.21;97609.19;5006894;28;20231;-63
2021/12/10 02:27:54;;;;;;;6.87;4.33;;;;;;;1.37;64.79;97596.06;5005141;28;20600;-63
2021/12/10 02:30:24;;;;;;;7.83;3.83;;;;;;;0.94;66.16;97592.78;5022819;28;20222;-65
2021/12/10 02:32:51;;;;;;;10.80;4.40;;;;;;;1.03;66.44;97591.81;5006752;28;21727;-64
2021/12/10 02:35:18;;;;;;;8.57;3.60;;;;;;;1.45;65.50;97585.59;5007672;28;20228;-66
2021/12/10 02:37:48;;;;;;;6.83;3.83;;;;;;;1.80;63.51;97561.69;5023208;28;20225;-66
2021/12/10 02:40:17;;;;;;;9.37;3.90;;;;;;;0.94;66.95;97569.16;5007168;28;20693;-64
2021/12/10 02:42:45;;;;;;;8.23;3.70;;;;;;;0.41;68.63;97564.16;5007196;28;20232;-65
2021/12/10 02:45:16;;;;;;;6.53;3.53;;;;;;;-0.18;70.36;97552.84;5005791;28;20221;-66
2021/12/10 02:47:44;;;;;;;6.87;3.70;;;;;;;-0.51;71.18;97544.78;5013248;28;20711;-65
2021/12/10 02:50:15;;;;;;;4.83;3.70;;;;;;;1.49;65.03;97536.16;5018110;28;20224;-65
2021/12/10 02:52:42;;;;;;;6.73;3.40;;;;;;;2.25;62.39;97518.09;5006865;28;20236;-65
2021/12/10 02:55:13;;;;;;;6.13;3.80;;;;;;;-0.35;68.44;97510.03;5006719;28;20600;-65
2021/12/10 02:57:42;;;;;;;6.10;3.10;;;;;;;1.51;64.61;97513.97;5006689;28;20239;-65
2021/12/10 03:00:13;;;;;;;7.73;3.10;;;;;;;0.95;63.96;97476.31;5007929;28;20243;-65
2021/12/10 03:02:40;;;;;;;9.70;3.10;;;;;;;1.90;63.08;97488.69;5007942;28;20250;-65
2021/12/10 03:05:09;;;;;;;7.40;3.67;;;;;;;1.36;64.29;97470.97;5007003;28;20231;-64
2021/12/10 03:07:38;;;;;;;8.33;3.77;;;;;;;0.66;67.51;97480.25;5007048;28;20240;-64
2021/12/10 03:10:09;;;;;;;6.40;3.13;;;;;;;1.87;63.36;97481.13;5012797;28;20228;-65
2021/12/10 03:12:37;;;;;;;8.07;3.63;;;;;;;-0.37;69.25;97463.03;5026365;28;20680;-65
2021/12/10 03:15:05;;;;;;;6.97;3.50;;;;;;;-0.17;69.61;97475.84;5026627;28;20223;-65
2021/12/10 03:17:32;;;;;;;5.83;3.43;;;;;;;1.14;66.46;97478.56;5026398;28;20708;-65
2021/12/10 03:20:04;;;;;;;5.73;3.47;;;;;;;0.67;67.56;97467.94;5018248;28;20219;-65
2021/12/10 03:22:31;;;;;;;7.10;3.73;;;;;;;0.56;68.19;97471.72;5009190;28;20225;-65
2021/12/10 03:24:58;;;;;;;8.60;3.80;;;;;;;1.40;65.14;97467.03;5023137;28;20227;-65
2021/12/10 03:27:25;;;;;;;7.67;3.40;;;;;;;0.24;67.51;97450.53;5006158;28;20247;-64
2021/12/10 03:29:54;;;;;;;9.90;3.90;;;;;;;-0.24;70.25;97470.41;5007117;28;20231;-64
2021/12/10 03:32:25;;;;;;;4.43;3.33;;;;;;;0.55;68.28;97470.09;5007305;28;20267;-64
2021/12/10 03:34:52;;;;;;;11.33;4.23;;;;;;;0.24;68.13;97454.97;4997780;28;21368;-64
2021/12/10 03:37:19;;;;;;;8.97;3.97;;;;;;;-0.56;70.98;97456.25;5026126;28;20229;-64
2021/12/10 03:39:49;;;;;;;5.20;3.73;;;;;;;0.21;69.14;97452.69;5010824;28;20618;-64
2021/12/10 03:42:17;;;;;;;7.93;3.40;;;;;;;0.65;68.93;97462.84;5007464;28;20232;-64
2021/12/10 03:44:44;;;;;;;5.27;3.50;;;;;;;0.00;69.04;97448.72;5006788;28;20704;-64
2021/12/10 03:47:12;;;;;;;7.70;3.00;;;;;;;0.70;67.58;97442.19;5010059;28;20227;-64
2021/12/10 03:49:40;;;;;;;7.53;3.47;;;;;;;0.41;66.77;97433.03;5010606;28;20241;-64
2021/12/10 03:52:09;;;;;;;5.43;4.20;;;;;;;1.31;65.28;97439.94;5010481;28;20216;-64
2021/12/10 03:54:38;;;;;;;5.73;3.37;;;;;;;1.55;64.05;97433.00;5007935;28;20600;-63
2021/12/10 03:57:06;;;;;;;7.47;3.60;;;;;;;1.18;65.78;97429.97;5021272;28;20250;-64
2021/12/10 03:59:36;;;;;;;10.27;4.03;;;;;;;0.49;67.57;97421.72;5010593;28;20232;-64
2021/12/10 04:02:06;;;;;;;7.80;3.70;;;;;;;0.14;69.12;97428.91;5009529;28;20234;-65
2021/12/10 04:04:38;;;;;;;5.53;3.77;;;;;;;1.89;63.12;97408.19;5010208;28;20228;-64
2021/12/10 04:07:09;;;;;;;5.37;3.70;;;;;;;2.06;62.38;97393.13;5009316;28;20259;-64
2021/12/10 04:09:36;;;;;;;6.17;3.53;;;;;;;0.35;66.99;97376.00;5012197;28;20216;-65
2021/12/10 04:12:07;;;;;;;9.77;4.37;;;;;;;1.16;65.13;97395.19;5014248;28;20220;-65
2021/12/10 04:14:34;;;;;;;15.27;5.37;;;;;;;0.95;64.89;97377.34;5009264;28;20228;-65
2021/12/10 04:17:02;;;;;;;12.80;4.83;;;;;;;0.75;64.79;97360.34;5008839;28;20228;-64
2021/12/10 04:19:31;;;;;;;12.70;5.47;;;;;;;1.29;64.64;97378.88;5010241;28;20227;-65
2021/12/10 04:22:00;;;;;;;9.97;5.27;;;;;;;0.83;66.02;97369.03;5021658;28;20221;-65
2021/12/10 04:24:30;;;;;;;10.37;5.27;;;;;;;1.22;64.88;97370.06;5029453;28;20223;-65
2021/12/10 04:26:58;;;;;;;12.53;6.80;;;;;;;1.54;63.12;97352.53;5028510;28;20223;-66
2021/12/10 04:29:26;;;;;;;8.53;5.00;;;;;;;-0.43;69.57;97337.09;5011115;28;20631;-65
2021/12/10 04:31:57;;;;;;;11.43;5.17;;;;;;;0.53;66.96;97354.00;4992681;28;20233;-65
2021/12/10 04:34:26;;;;;;;8.77;4.90;;;;;;;-0.28;69.34;97342.53;5009080;28;20227;-65
2021/12/10 04:36:55;;;;;;;6.67;4.10;;;;;;;1.31;64.74;97355.88;5009864;28;20233;-70
2021/12/10 04:39:23;;;;;;;6.87;4.63;;;;;;;1.39;63.45;97334.03;5007972;28;20876;-68
2021/12/10 04:41:51;;;;;;;9.83;4.73;;;;;;;0.06;68.47;97356.31;5025845;28;20279;-69
2021/12/10 04:44:18;;;;;;;8.77;4.33;;;;;;;-0.25;69.36;97343.03;5010666;28;20234;-69
2021/12/10 04:46:46;;;;;;;7.93;3.80;;;;;;;-0.99;70.35;97321.88;5009735;28;20480;-68
2021/12/10 04:49:15;;;;;;;4.17;3.40;;;;;;;-1.94;73.86;97336.63;5011081;28;20594;-70
2021/12/10 04:51:46;;;;;;;7.80;4.00;;;;;;;-1.35;72.27;97326.41;5029108;28;20731;-66
2021/12/10 04:54:14;;;;;;;6.97;3.40;;;;;;;-0.90;72.93;97341.06;5029513;28;20699;-64
2021/12/10 04:56:41;;;;;;;6.23;3.13;;;;;;;-0.83;70.61;97312.44;5012900;28;21037;-63
2021/12/10 04:59:13;;;;;;;10.20;3.67;;;;;;;-1.48;73.36;97311.97;4992172;28;20231;-64
2021/12/10 05:01:40;;;;;;;4.60;3.33;;;;;;;-0.15;70.50;97295.72;4991809;28;20237;-64
2021/12/10 05:04:08;;;;;;;5.17;3.90;;;;;;;0.87;66.31;97279.44;5009942;28;20227;-65
2021/12/10 05:06:37;;;;;;;7.43;3.90;;;;;;;0.31;68.19;97276.84;5008130;28;20225;-65
2021/12/10 05:09:08;;;;;;;9.40;3.80;;;;;;;0.18;67.32;97270.28;5008640;28;20235;-64
2021/12/10 05:11:35;;;;;;;7.73;4.10;;;;;;;-0.97;71.41;97275.44;5026545;28;20738;-64
2021/12/10 05:14:05;;;;;;;9.23;4.77;;;;;;;-0.33;70.12;97272.28;5011337;28;20228;-64
2021/12/10 05:16:39;;;;;;;11.47;4.90;;;;;;;0.91;64.53;97252.69;5008822;28;20225;-64
2021/12/10 05:19:06;;;;;;;8.80;4.93;;;;;;;1.23;63.25;97237.75;5007986;28;20241;-64
2021/12/10 05:21:34;;;;;;;13.93;4.90;;;;;;;0.24;66.79;97250.47;5009296;28;20737;-64
2021/12/10 05:24:04;;;;;;;9.00;5.03;;;;;;;0.20;66.31;97239.50;5009012;28;20225;-64
2021/12/10 05:26:31;;;;;;;5.60;4.87;;;;;;;0.33;66.48;97235.53;5008169;28;20245;-64
2021/12/10 05:28:59;;;;;;;5.27;4.00;;;;;;;0.96;64.40;97231.16;5008473;28;20878;-63
2021/12/10 05:31:27;;;;;;;13.57;5.93;;;;;;;1.14;63.14;97223.84;5008534;28;20223;-64
2021/12/10 05:33:54;;;;;;;13.20;7.33;;;;;;;0.78;64.10;97221.75;5009323;28;20242;-64
2021/12/10 05:36:21;;;;;;;9.43;7.00;;;;;;;0.76;64.20;97225.53;5010694;28;20228;-64
2021/12/10 05:38:48;;;;;;;9.93;7.33;;;;;;;0.69;64.31;97224.56;4999658;28;20262;-64
2021/12/10 05:41:15;;;;;;;8.03;6.23;;;;;;;0.22;65.65;97224.41;5008264;28;20240;-64
2021/12/10 05:43:43;;;;;;;10.00;6.60;;;;;;;0.31;65.29;97219.16;5008347;28;20235;-64
2021/12/10 05:46:11;;;;;;;11.10;6.07;;;;;;;0.98;63.26;97213.47;5008492;28;20494;-64
2021/12/10 05:48:40;;;;;;;11.07;5.63;;;;;;;0.68;63.90;97191.47;5017864;28;20222;-65
2021/12/10 05:51:08;;;;;;;9.67;5.47;;;;;;;0.85;63.70;97187.75;5010702;28;20245;-64
2021/12/10 05:53:35;;;;;;;10.80;5.90;;;;;;;0.79;63.66;97172.69;5009716;28;20242;-64
2021/12/10 05:56:03;;;;;;;7.17;5.47;;;;;;;0.67;64.21;97159.13;5007839;28;20228;-64
2021/12/10 05:58:30;;;;;;;9.20;4.80;;;;;;;-0.34;66.22;97148.34;4990387;28;20216;-64
2021/12/10 06:01:03;;;;;;;7.37;4.10;;;;;;;0.35;65.44;97154.88;5007508;28;20234;-64
2021/12/10 06:03:32;;;;;;;10.33;3.67;;;;;;;0.10;65.52;97144.50;5008666;28;20233;-64
2021/12/10 06:05:59;;;;;;;4.90;3.70;;;;;;;-0.10;66.96;97162.41;5007265;28;20769;-63
2021/12/10 06:08:27;;;;;;;4.10;3.70;;;;;;;-0.04;66.68;97155.66;5008267;28;20234;-63
2021/12/10 06:10:56;;;;;;;5.00;3.40;;;;;;;-0.05;66.65;97156.63;5009475;28;20601;-64
2021/12/10 06:13:23;;;;;;;6.53;4.13;;;;;;;-0.07;66.86;97135.03;5006282;28;20247;-64
2021/12/10 06:15:51;;;;;;;4.43;3.30;;;;;;;0.33;65.48;97131.44;5008352;28;20248;-64
2021/12/10 06:18:18;;;;;;;5.00;3.30;;;;;;;0.76;64.29;97118.75;5007830;28;20734;-63
2021/12/10 06:20:49;;;;;;;7.10;3.50;;;;;;;0.76;63.93;97117.94;4990322;28;20230;-64
2021/12/10 06:23:17;;;;;;;5.93;3.57;;;;;;;0.33;64.74;97089.47;5007987;28;20248;-63
2021/12/10 06:25:44;;;;;;;10.37;3.90;;;;;;;0.06;66.40;97103.84;5007360;28;20220;-64
2021/12/10 06:28:12;;;;;;;4.33;3.10;;;;;;;0.46;64.72;97094.19;5007770;28;20724;-63
2021/12/10 06:30:42;;;;;;;5.57;3.30;;;;;;;0.63;64.30;97098.31;5006511;28;20227;-64
2021/12/10 06:33:12;;;;;;;3.90;3.20;;;;;;;0.26;64.80;97078.06;5007561;28;20223;-63
2021/12/10 06:35:42;;;;;;;6.40;3.50;;;;;;;0.23;65.25;97084.47;5026735;28;20610;-63
2021/12/10 06:38:10;;;;;;;4.93;3.07;;;;;;;0.26;64.97;97078.06;5026834;28;20228;-63
2021/12/10 06:40:39;;;;;;;5.97;3.60;;;;;;;0.34;64.44;97080.63;5010764;28;20233;-63
2021/12/10 06:43:08;;;;;;;9.80;4.20;;;;;;;0.18;64.47;97076.28;5007307;28;20235;-63
2021/12/10 06:45:42;;;;;;;4.87;3.00;;;;;;;0.43;64.35;97076.16;5007551;28;20542;-63
2021/12/10 06:48:11;;;;;;;7.03;3.03;;;;;;;0.28;64.60;97064.78;5006922;28;20236;-63
2021/12/10 06:50:44;;;;;;;8.80;3.73;;;;;;;-0.96;66.31;97033.72;4989293;28;20229;-64
2021/12/10 06:53:12;;;;;;;4.57;3.67;;;;;;;-0.77;67.82;97065.75;5008002;28;20691;-63
2021/12/10 06:55:39;;;;;;;4.80;3.13;;;;;;;0.15;65.18;97057.44;5007273;28;20253;-63
2021/12/10 06:58:07;;;;;;;6.23;3.20;;;;;;;-0.10;65.35;97049.72;5007469;28;20222;-63
2021/12/10 07:00:45;;;;;;;4.03;3.33;;;;;;;0.45;63.79;97061.91;5005014;28;20432;-63
2021/12/10 07:03:16;;;;;;;5.33;3.37;;;;;;;0.20;64.37;97055.13;5006582;28;20222;-63
2021/12/10 07:05:44;;;;;;;8.10;3.60;;;;;;;0.33;63.77;97050.13;5007184;28;20696;-63
2021/12/10 07:08:11;;;;;;;4.40;3.20;;;;;;;0.44;63.75;97046.31;5005755;28;20442;-64
2021/12/10 07:10:38;;;;;;;3.50;2.90;;;;;;;0.61;63.36;97058.34;5007074;28;20233;-64
2021/12/10 07:13:09;;;;;;;10.23;4.37;;;;;;;0.47;63.76;97047.78;4998195;28;20222;-63
2021/12/10 07:15:41;;;;;;;5.47;4.03;;;;;;;0.20;64.32;97039.41;5003015;28;20234;-63
2021/12/10 07:18:09;;;;;;;5.77;3.57;;;;;;;0.28;64.18;97049.84;4988604;28;20218;-63
2021/12/10 07:20:38;;;;;;;7.27;3.13;;;;;;;0.41;63.99;97055.34;5009693;28;20227;-62
2021/12/10 07:23:05;;;;;;;6.70;3.97;;;;;;;0.15;64.20;97042.56;5011217;28;20231;-64
2021/12/10 07:25:33;;;;;;;9.10;4.23;;;;;;;0.05;64.29;97055.88;5011171;28;20222;-63
2021/12/10 07:27:59;;;;;;;5.07;4.00;;;;;;;0.32;63.77;97058.19;5009963;28;20226;-63
2021/12/10 07:30:28;;;;;;;6.00;4.20;;;;;;;0.10;65.00;97057.16;5000303;28;20232;-63
2021/12/10 07:32:56;;;;;;;7.77;4.77;;;;;;;0.46;63.23;97046.97;5000986;28;20649;-63
2021/12/10 07:35:24;;;;;;;8.00;4.20;;;;;;;0.34;63.60;97051.78;4999827;28;20273;-63
2021/12/10 07:37:51;;;;;;;8.60;3.90;;;;;;;0.52;62.99;97046.28;5000610;28;20241;-63
2021/12/10 07:40:26;;;;;;;4.80;3.43;;;;;;;0.08;64.67;97039.81;5008216;28;20237;-62
2021/12/10 07:42:54;;;;;;;7.03;3.50;;;;;;;0.00;65.15;97042.47;5009337;28;21706;-63
2021/12/10 07:45:22;;;;;;;5.83;3.80;;;;;;;-0.16;65.16;97038.09;5011116;28;20221;-62
2021/12/10 07:47:55;;;;;;;7.07;3.80;;;;;;;-0.05;65.18;97036.06;5013937;28;20225;-63
2021/12/10 07:50:28;;;;;;;6.03;4.10;;;;;;;0.13;64.83;97047.13;5012820;28;20221;-63
2021/12/10 07:52:56;;;;;;;5.10;4.00;;;;;;;0.08;64.79;97042.44;5019646;28;20225;-63
2021/12/10 07:55:29;;;;;;;9.60;4.30;;;;;;;0.17;65.28;97045.00;5029579;28;20228;-63
2021/12/10 07:57:56;;;;;;;7.93;3.90;;;;;;;0.02;66.11;97047.53;5030396;28;20232;-63
2021/12/10 08:00:27;;;;;;;6.57;4.10;;;;;;;-0.12;66.14;97044.63;5011507;28;20608;-63
2021/12/10 08:02:54;;;;;;;8.43;4.03;;;;;;;-0.19;66.21;97040.22;5031029;28;20622;-64
2021/12/10 08:05:22;;;;;;;4.97;4.07;;;;;;;-0.51;67.05;97052.44;5029613;28;20789;-62
2021/12/10 08:07:52;;;;;;;8.30;4.80;;;;;;;-0.55;67.61;97056.38;5022707;28;20236;-63
2021/12/10 08:10:19;;;;;;;7.63;5.33;;;;;;;-0.54;67.75;97048.38;5020534;28;20229;-63
2021/12/10 08:12:46;;;;;;;8.13;4.83;;;;;;;-0.50;67.79;97056.72;5009603;28;20237;-63
2021/12/10 08:15:14;;;;;;;8.10;4.53;;;;;;;-0.39;67.56;97060.75;5009842;28;20225;-62
2021/12/10 08:17:43;;;;;;;7.43;4.70;;;;;;;-0.18;66.95;97052.34;5009392;28;20239;-62
2021/12/10 08:22:37;;;;;;;7.13;4.77;;;;;;;-0.09;66.73;97053.13;4915136;28;20235;-63
2021/12/10 08:25:05;;;;;;;11.80;4.87;;;;;;;-0.16;67.00;97045.94;4918024;29;20255;-63
2021/12/10 08:27:33;;;;;;;4.80;4.10;;;;;;;0.12;66.09;97049.91;4917924;29;20235;-61
2021/12/10 08:30:03;;;;;;;6.50;4.10;;;;;;;0.02;66.60;97050.97;4917570;29;20235;-61
2021/12/10 08:32:32;;;;;;;9.47;4.23;;;;;;;0.08;66.07;97044.22;4925627;28;20233;-60
2021/12/10 08:35:01;;;;;;;7.00;4.60;;;;;;;-0.55;68.38;97038.06;4928306;28;20232;-60
2021/12/10 08:37:28;;;;;;;6.63;4.27;;;;;;;-0.73;70.22;97049.56;4934344;28;20228;-62
2021/12/10 08:39:56;;;;;;;14.23;7.10;;;;;;;-2.45;75.59;97049.19;4936915;28;20233;-62
2021/12/10 08:42:23;;;;;;;11.63;5.80;;;;;;;-0.91;71.25;97051.53;4931237;28;20241;-61
2021/12/10 08:44:50;;;;;;;8.63;5.47;;;;;;;-2.53;74.34;97037.72;4932546;28;20231;-62
2021/12/10 08:47:17;;;;;;;10.47;6.33;;;;;;;-1.30;74.48;97075.69;4914387;29;20232;-61
2021/12/10 08:49:45;;;;;;;7.67;5.37;;;;;;;-1.08;70.19;97030.56;4932152;28;20240;-61
2021/12/10 08:52:14;;;;;;;9.73;4.60;;;;;;;-2.00;74.93;97048.88;4939286;28;20233;-62
2021/12/10 08:54:42;;;;;;;12.90;6.43;;;;;;;-2.29;78.57;97079.81;4943603;28;20717;-62
2021/12/10 08:57:11;;;;;;;30.20;16.03;;;;;;;-3.24;80.31;97056.97;4930921;28;20238;-63
2021/12/10 08:59:39;;;;;;;26.07;12.87;;;;;;;-3.65;82.03;97049.59;4931606;28;20245;-61
2021/12/10 09:02:15;;;;;;;22.03;12.60;;;;;;;-3.37;81.50;97048.72;4931851;28;20617;-62
2021/12/10 09:04:42;;;;;;;10.83;6.87;;;;;;;-2.94;80.58;97060.13;4931320;28;20608;-61
2021/12/10 09:07:13;;;;;;;20.33;10.20;;;;;;;-0.84;74.15;97028.94;4931575;28;20235;-62
2021/12/10 09:09:43;;;;;;;14.03;9.70;;;;;;;-0.49;71.89;97016.44;4932255;28;20713;-62
2021/12/10 09:12:14;;;;;;;6.57;5.27;;;;;;;-0.52;71.36;97001.06;4931773;28;20237;-62
2021/12/10 09:14:47;;;;;;;8.43;5.63;;;;;;;-0.56;71.96;97003.22;4931135;28;20626;-62
2021/12/10 09:17:20;;;;;;;7.30;5.83;;;;;;;0.43;68.70;97003.53;4930614;28;20239;-62
2021/12/10 09:19:54;;;;;;;8.63;6.30;;;;;;;0.15;69.23;96990.13;4930886;28;20228;-63
2021/12/10 09:22:21;;;;;;;8.87;6.30;;;;;;;-0.34;70.19;96987.72;4931300;28;20264;-62
2021/12/10 09:24:48;;;;;;;11.87;5.93;;;;;;;-0.49;70.25;96977.16;4930942;28;20230;-62
2021/12/10 09:27:15;;;;;;;12.93;6.60;;;;;;;0.21;69.32;96988.59;4930780;28;20242;-62
2021/12/10 09:29:45;;;;;;;6.90;5.30;;;;;;;0.23;68.95;96984.84;4930613;28;20218;-62
2021/12/10 09:32:16;;;;;;;10.93;5.60;;;;;;;0.18;69.36;96987.13;4932084;28;20231;-62
2021/12/10 09:34:44;;;;;;;8.00;5.87;;;;;;;-0.19;69.71;96977.34;4930386;28;20246;-62
2021/12/10 09:37:11;;;;;;;9.10;5.87;;;;;;;0.33;68.58;96984.59;4930520;28;20320;-62
2021/12/10 09:39:38;;;;;;;10.83;6.53;;;;;;;0.89;66.65;96984.34;4931236;28;20240;-63
2021/12/10 09:42:07;;;;;;;11.37;6.13;;;;;;;1.23;65.14;96969.06;4930111;28;20259;-63
2021/12/10 09:44:36;;;;;;;8.30;5.40;;;;;;;0.87;66.00;96954.81;4930998;28;20240;-62
2021/12/10 09:47:04;;;;;;;7.40;5.07;;;;;;;0.96;65.88;96963.41;4930295;28;20226;-61
2021/12/10 09:49:33;;;;;;;6.97;5.60;;;;;;;0.72;65.91;96951.34;4931207;28;20242;-62
2021/12/10 09:52:04;;;;;;;11.07;5.33;;;;;;;0.94;66.35;96965.41;4935433;28;20613;-62
2021/12/10 09:54:34;;;;;;;8.67;5.43;;;;;;;0.98;65.73;96964.88;4949933;28;20235;-60
2021/12/10 09:57:11;;;;;;;11.07;5.50;;;;;;;1.14;65.58;96958.66;4950278;28;20233;-62
2021/12/10 09:59:42;;;;;;;11.80;5.73;;;;;;;1.19;65.02;96956.28;4936947;28;20221;-62
2021/12/10 10:02:10;;;;;;;8.53;5.60;;;;;;;0.81;66.48;96943.22;4947642;28;20227;-62
2021/12/10 10:04:44;;;;;;;7.47;5.40;;;;;;;1.14;65.81;96945.50;4911670;28;20225;-62
2021/12/10 10:07:15;;;;;;;9.73;6.77;;;;;;;0.66;67.09;96936.31;4913417;28;20228;-62
2021/12/10 10:09:46;;;;;;;12.93;6.20;;;;;;;0.64;67.08;96929.44;4930773;28;20781;-61
2021/12/10 10:12:23;;;;;;;12.23;6.97;;;;;;;0.83;67.18;96938.59;4910533;29;20258;-62
2021/12/10 10:14:50;;;;;;;10.30;6.97;;;;;;;1.10;66.27;96932.94;4922553;28;20234;-62
2021/12/10 10:17:18;;;;;;;8.07;5.87;;;;;;;0.66;67.52;96921.41;4929511;28;20236;-62
2021/12/10 10:19:45;;;;;;;13.97;6.33;;;;;;;0.92;66.80;96920.16;4930225;28;20225;-62
2021/12/10 10:22:16;;;;;;;9.47;5.50;;;;;;;0.88;66.52;96911.03;4929622;28;20864;-61
2021/12/10 10:24:43;;;;;;;7.30;5.13;;;;;;;0.75;67.22;96915.06;4930340;28;20241;-62
2021/12/10 10:27:18;;;;;;;7.43;5.27;;;;;;;0.59;67.78;96907.38;4911408;28;20261;-62
2021/12/10 10:30:01;;;;;;;8.17;5.67;;;;;;;0.83;67.29;96909.75;4929824;28;20283;-61
2021/12/10 10:32:31;;;;;;;9.07;6.00;;;;;;;0.66;67.90;96904.81;4929032;28;20220;-62
2021/12/10 10:35:04;;;;;;;13.43;6.73;;;;;;;0.69;67.54;96899.22;4929901;28;20230;-62
2021/12/10 10:37:32;;;;;;;12.03;9.40;;;;;;;0.29;68.88;96907.28;4929212;29;20623;-62
2021/12/10 10:40:04;;;;;;;10.67;8.40;;;;;;;0.77;67.83;96909.63;4929866;29;20222;-62
2021/12/10 10:42:32;;;;;;;9.53;6.70;;;;;;;0.75;67.65;96899.31;4929873;29;20237;-62
2021/12/10 10:45:06;;;;;;;10.17;6.80;;;;;;;0.76;67.86;96906.22;4930649;29;20751;-62
2021/12/10 10:47:33;;;;;;;7.83;5.83;;;;;;;0.69;67.85;96893.97;4909820;29;20547;-62
2021/12/10 10:50:28;;;;;;;8.70;5.73;;;;;;;0.62;68.67;96893.88;4919171;29;20229;-62
2021/12/10 10:53:00;;;;;;;13.13;5.80;;;;;;;0.43;68.77;96885.50;4912203;28;21616;-62
2021/12/10 10:55:36;;;;;;;11.57;5.83;;;;;;;0.49;68.75;96884.00;4931587;28;20672;-62
2021/12/10 10:58:14;;;;;;;10.23;5.53;;;;;;;0.53;69.08;96879.22;4931796;28;20220;-62
2021/12/10 11:03:48;;;;;;;8.73;5.13;;;;;;;-0.89;74.23;96908.25;5090808;27;20351;-61
2021/12/10 11:06:23;;;;;;;8.90;6.30;;;;;;;-1.04;74.58;96887.19;5064154;28;20228;-62
2021/12/10 11:08:52;;;;;;;10.23;6.10;;;;;;;-0.72;73.71;96886.25;5072757;28;20681;-61
2021/12/10 11:11:22;;;;;;;7.77;5.97;;;;;;;-0.48;72.63;96882.69;5069408;28;20632;-61
2021/12/10 11:14:15;;;;;;;6.90;5.50;;;;;;;-0.27;72.29;96878.69;5070946;28;20226;-62
2021/12/10 11:16:45;;;;;;;9.03;6.00;;;;;;;-0.47;72.73;96878.28;5078241;28;20230;-62
2021/12/10 11:19:21;;;;;;;9.10;5.83;;;;;;;-0.27;72.03;96872.59;5077035;28;20236;-61
2021/12/10 11:21:57;;;;;;;8.30;6.10;;;;;;;-0.34;72.49;96880.34;5065085;28;20230;-61
2021/12/10 11:24:38;;;;;;;7.07;5.97;;;;;;;-0.04;71.60;96873.44;5062955;28;20229;-62
2021/12/10 11:27:10;;;;;;;9.40;6.57;;;;;;;-0.05;71.49;96873.59;5051067;28;20620;-61
2021/12/10 11:29:47;;;;;;;8.30;6.03;;;;;;;-0.00;71.44;96868.66;5063858;28;20723;-61
2021/12/10 11:32:37;;;;;;;7.83;6.27;;;;;;;-0.27;72.32;96867.34;5054352;28;20220;-60
2021/12/10 11:35:15;;;;;;;8.17;5.63;;;;;;;-0.38;72.38;96860.72;5061055;28;20501;-62
2021/12/10 11:37:51;;;;;;;8.30;6.30;;;;;;;0.05;71.59;96866.34;5071628;28;20233;-62
2021/12/10 11:40:38;;;;;;;9.00;6.20;;;;;;;-0.06;71.77;96864.94;5078723;28;20234;-60
2021/12/10 11:43:19;;;;;;;9.03;6.33;;;;;;;0.08;71.48;96853.69;5083553;28;20625;-62
2021/12/10 11:46:15;;;;;;;8.27;6.10;;;;;;;0.04;71.51;96855.03;5090722;28;20225;-61
2021/12/10 11:48:44;;;;;;;8.37;6.30;;;;;;;-0.01;71.71;96849.50;5072368;28;20234;-62
2021/12/10 11:51:20;;;;;;;10.60;6.40;;;;;;;0.38;70.98;96859.00;5060405;28;20239;-62
2021/12/10 11:53:56;;;;;;;10.40;6.43;;;;;;;0.34;70.74;96857.75;5047497;28;20227;-61
2021/12/10 11:56:28;;;;;;;7.87;6.63;;;;;;;0.32;70.87;96846.63;5045387;28;20226;-61
2021/12/10 11:59:10;;;;;;;10.67;6.50;;;;;;;0.39;70.74;96842.28;5064561;28;20235;-61
2021/12/10 12:02:01;;;;;;;13.73;7.40;;;;;;;0.18;70.71;96840.31;5072454;28;20628;-62
2021/12/10 12:04:30;;;;;;;7.40;5.80;;;;;;;0.44;70.49;96850.44;5061649;28;20233;-61
2021/12/10 12:07:16;;;;;;;10.23;6.93;;;;;;;0.21;71.27;96845.22;5063416;28;20227;-60